createdAt,value
2018-05-31T00:02:22.667Z,8.17
2018-05-31T00:04:50.215Z,7.73
2018-05-31T00:07:17.747Z,8.33
2018-05-31T00:09:45.315Z,7.77
2018-05-31T00:12:12.843Z,8.20
2018-05-31T00:14:40.401Z,8.37
2018-05-31T00:17:08.685Z,8.90
2018-05-31T00:19:36.193Z,8.20
2018-05-31T00:22:03.831Z,8.80
2018-05-31T00:24:31.360Z,8.30
2018-05-31T00:26:58.919Z,7.77
2018-05-31T00:29:26.431Z,8.40
2018-05-31T00:31:53.997Z,8.87
2018-05-31T00:34:22.284Z,7.97
2018-05-31T00:36:49.850Z,8.37
2018-05-31T00:39:17.379Z,8.50
2018-05-31T00:41:45.711Z,8.73
2018-05-31T00:44:14.407Z,9.13
2018-05-31T00:46:41.957Z,8.23
2018-05-31T00:49:09.497Z,8.77
2018-05-31T00:51:37.065Z,8.13
2018-05-31T00:54:04.599Z,8.90
2018-05-31T00:56:32.158Z,8.43
2018-05-31T00:58:59.704Z,8.77
2018-05-31T01:01:28.027Z,9.27
2018-05-31T01:03:55.585Z,8.50
2018-05-31T01:06:23.107Z,9.20
2018-05-31T01:08:51.420Z,8.63
2018-05-31T01:11:18.947Z,8.33
2018-05-31T01:13:46.489Z,9.20
2018-05-31T01:16:14.023Z,8.30
2018-05-31T01:18:41.595Z,8.93
2018-05-31T01:21:09.111Z,8.23
2018-05-31T01:23:36.658Z,9.37
2018-05-31T01:26:04.191Z,7.90
2018-05-31T01:28:32.510Z,8.40
2018-05-31T01:31:00.024Z,8.80
2018-05-31T01:33:27.573Z,8.77
2018-05-31T01:35:55.551Z,8.70
2018-05-31T01:38:33.009Z,9.00
2018-05-31T01:41:00.537Z,8.93
2018-05-31T01:43:28.121Z,8.70
2018-05-31T01:45:55.643Z,8.57
2018-05-31T01:48:23.180Z,9.40
2018-05-31T01:50:50.745Z,9.23
2018-05-31T01:53:18.343Z,9.13
2018-05-31T01:55:45.971Z,9.13
2018-05-31T01:58:13.569Z,9.43
2018-05-31T02:00:41.167Z,9.20
2018-05-31T02:03:12.027Z,9.77
2018-05-31T02:05:39.733Z,9.40
2018-05-31T02:08:07.561Z,10.27
2018-05-31T02:10:35.941Z,10.40
2018-05-31T02:13:04.339Z,9.37
2018-05-31T02:15:32.155Z,10.30
2018-05-31T02:17:59.911Z,10.00
2018-05-31T02:20:27.705Z,8.70
2018-05-31T02:22:55.311Z,9.47
2018-05-31T02:25:23.035Z,9.10
2018-05-31T02:27:50.703Z,9.20
2018-05-31T02:30:19.078Z,9.23
2018-05-31T02:32:47.480Z,10.03
2018-05-31T02:35:15.195Z,9.40
2018-05-31T02:37:42.768Z,9.10
2018-05-31T02:40:10.442Z,9.37
2018-05-31T02:42:38.117Z,10.43
2018-05-31T02:45:05.767Z,9.47
2018-05-31T02:47:34.225Z,9.67
2018-05-31T02:50:02.102Z,8.67
2018-05-31T02:52:30.487Z,9.17
2018-05-31T02:54:58.256Z,9.40
2018-05-31T02:57:26.680Z,9.67
2018-05-31T02:59:54.306Z,9.87
2018-05-31T03:02:21.923Z,10.00
2018-05-31T03:04:49.701Z,10.20
2018-05-31T03:07:17.488Z,10.47
2018-05-31T03:09:45.209Z,10.07
2018-05-31T03:12:12.847Z,9.83
2018-05-31T03:14:40.547Z,10.07
2018-05-31T03:17:08.346Z,9.50
2018-05-31T03:19:35.975Z,10.27
2018-05-31T03:22:03.563Z,9.80
2018-05-31T03:24:31.309Z,10.47
2018-05-31T03:26:59.335Z,10.43
2018-05-31T03:29:26.937Z,10.87
2018-05-31T03:31:54.654Z,9.30
2018-05-31T03:34:22.481Z,9.87
2018-05-31T03:36:51.053Z,10.57
2018-05-31T03:39:19.309Z,10.47
2018-05-31T03:41:47.059Z,10.43
2018-05-31T03:44:14.779Z,9.77
2018-05-31T03:46:43.527Z,10.60
2018-05-31T03:49:11.391Z,9.60
2018-05-31T03:51:39.907Z,10.70
2018-05-31T03:54:07.588Z,10.80
2018-05-31T03:56:35.409Z,11.83
2018-05-31T03:59:03.881Z,10.43
2018-05-31T04:01:32.149Z,10.23
2018-05-31T04:03:59.830Z,10.13
2018-05-31T04:06:28.324Z,9.73
2018-05-31T04:08:55.891Z,10.67
2018-05-31T04:11:23.621Z,11.07
2018-05-31T04:13:51.251Z,10.60
2018-05-31T04:16:18.936Z,11.83
2018-05-31T04:18:46.624Z,10.20
2018-05-31T04:21:14.361Z,11.30
2018-05-31T04:23:42.105Z,10.43
2018-05-31T04:26:09.841Z,10.90
2018-05-31T04:28:37.617Z,11.27
2018-05-31T04:31:05.335Z,10.47
2018-05-31T04:33:32.969Z,10.33
2018-05-31T04:36:00.601Z,11.03
2018-05-31T04:38:28.287Z,11.33
2018-05-31T04:40:55.909Z,11.27
2018-05-31T04:43:23.560Z,9.10
2018-05-31T04:45:51.305Z,12.20
2018-05-31T04:48:19.560Z,9.83
2018-05-31T04:50:47.223Z,10.27
2018-05-31T04:53:14.943Z,11.50
2018-05-31T04:55:42.565Z,10.67
2018-05-31T04:58:11.221Z,11.07
2018-05-31T05:00:39.006Z,11.13
2018-05-31T05:03:06.799Z,11.47
2018-05-31T05:05:34.586Z,10.43
2018-05-31T05:08:02.350Z,10.83
2018-05-31T05:10:30.739Z,9.90
2018-05-31T05:12:58.360Z,11.10
2018-05-31T05:15:26.040Z,10.70
2018-05-31T05:17:54.634Z,11.17
2018-05-31T05:20:23.219Z,10.47
2018-05-31T05:22:51.012Z,10.90
2018-05-31T05:25:18.847Z,10.07
2018-05-31T05:27:46.633Z,10.00
2018-05-31T05:30:14.426Z,9.87
2018-05-31T05:32:42.188Z,9.63
2018-05-31T05:35:09.958Z,10.00
2018-05-31T05:37:37.735Z,10.07
2018-05-31T05:40:07.215Z,8.87
2018-05-31T05:42:34.854Z,9.57
2018-05-31T05:45:03.250Z,9.63
2018-05-31T05:47:33.387Z,10.03
2018-05-31T05:50:01.684Z,9.10
2018-05-31T05:52:29.494Z,9.10
2018-05-31T05:54:57.311Z,9.33
2018-05-31T05:57:24.969Z,9.30
2018-05-31T05:59:52.678Z,9.73
2018-05-31T06:02:20.327Z,9.27
2018-05-31T06:04:48.004Z,8.57
2018-05-31T06:07:15.935Z,8.60
2018-05-31T06:09:43.561Z,8.57
2018-05-31T06:12:11.250Z,8.83
2018-05-31T06:14:38.877Z,8.33
2018-05-31T06:17:06.685Z,7.80
2018-05-31T06:19:35.157Z,8.80
2018-05-31T06:22:03.001Z,8.03
2018-05-31T06:24:30.734Z,7.70
2018-05-31T06:26:58.357Z,8.00
2018-05-31T06:29:28.041Z,7.40
2018-05-31T06:31:55.783Z,7.40
2018-05-31T06:34:23.606Z,7.80
2018-05-31T06:36:51.962Z,7.23
2018-05-31T06:39:19.725Z,7.07
2018-05-31T06:41:47.342Z,7.50
2018-05-31T06:44:15.069Z,6.33
2018-05-31T06:46:42.735Z,6.57
2018-05-31T06:49:10.402Z,6.87
2018-05-31T06:51:38.306Z,6.03
2018-05-31T06:54:06.103Z,6.67
2018-05-31T06:56:33.987Z,5.90
2018-05-31T06:59:01.661Z,5.83
2018-05-31T07:01:29.535Z,5.37
2018-05-31T07:03:57.335Z,4.47
2018-05-31T07:06:25.902Z,4.87
2018-05-31T07:08:53.723Z,4.87
2018-05-31T07:11:21.544Z,4.77
2018-05-31T07:13:50.115Z,4.40
2018-05-31T07:16:17.984Z,3.77
2018-05-31T07:18:45.950Z,4.07
2018-05-31T07:21:13.695Z,3.87
2018-05-31T07:23:41.519Z,3.67
2018-05-31T07:26:09.353Z,3.80
2018-05-31T07:28:37.168Z,3.47
2018-05-31T07:31:04.968Z,3.70
2018-05-31T07:33:34.727Z,4.13
2018-05-31T07:36:02.470Z,4.10
2018-05-31T07:38:30.216Z,3.90
2018-05-31T07:40:57.989Z,3.90
2018-05-31T07:43:26.567Z,4.30
2018-05-31T07:45:54.373Z,3.37
2018-05-31T07:48:22.085Z,3.83
2018-05-31T07:50:49.689Z,3.50
2018-05-31T07:53:17.346Z,3.87
2018-05-31T07:55:45.046Z,3.03
2018-05-31T07:58:13.234Z,3.63
2018-05-31T08:00:41.031Z,4.23
2018-05-31T08:03:08.801Z,3.50
2018-05-31T08:05:37.236Z,3.57
2018-05-31T08:08:04.949Z,3.67
2018-05-31T08:10:32.528Z,3.80
2018-05-31T08:13:00.293Z,3.60
2018-05-31T08:15:28.028Z,3.87
2018-05-31T08:17:55.804Z,3.77
2018-05-31T08:20:23.532Z,3.53
2018-05-31T08:22:51.179Z,3.50
2018-05-31T08:25:18.973Z,3.05
2018-05-31T08:27:46.741Z,3.53
2018-05-31T08:30:14.441Z,3.20
2018-05-31T08:32:42.095Z,3.20
2018-05-31T08:35:10.489Z,3.42
2018-05-31T08:37:38.025Z,3.37
2018-05-31T08:40:05.707Z,4.30
2018-05-31T08:42:33.326Z,3.97
2018-05-31T08:45:00.987Z,3.75
2018-05-31T08:47:28.539Z,3.72
2018-05-31T08:49:56.183Z,3.47
2018-05-31T08:52:23.912Z,3.35
2018-05-31T08:54:51.557Z,3.47
2018-05-31T08:57:20.900Z,3.30
2018-05-31T08:59:49.266Z,3.55
2018-05-31T09:02:16.813Z,3.37
2018-05-31T09:04:44.501Z,3.22
2018-05-31T09:07:12.114Z,2.92
2018-05-31T09:09:40.314Z,3.62
2018-05-31T09:12:07.957Z,3.28
2018-05-31T09:14:35.589Z,3.10
2018-05-31T09:17:04.409Z,3.37
2018-05-31T09:19:32.857Z,3.45
2018-05-31T09:22:00.673Z,3.05
2018-05-31T09:24:28.219Z,3.30
2018-05-31T09:26:56.624Z,3.37
2018-05-31T09:29:24.231Z,3.35
2018-05-31T09:31:51.909Z,3.67
2018-05-31T09:34:19.723Z,3.10
2018-05-31T09:36:47.454Z,3.08
2018-05-31T09:39:15.124Z,3.20
2018-05-31T09:41:42.913Z,3.30
2018-05-31T09:44:10.748Z,3.00
2018-05-31T09:46:38.765Z,2.95
2018-05-31T09:49:06.353Z,3.20
2018-05-31T09:51:34.033Z,3.17
2018-05-31T09:54:01.730Z,3.33
2018-05-31T09:56:29.347Z,3.35
2018-05-31T09:58:56.890Z,3.25
2018-05-31T10:01:24.411Z,4.55
2018-05-31T10:03:52.721Z,3.50
2018-05-31T10:06:20.227Z,3.58
2018-05-31T10:08:47.778Z,3.72
2018-05-31T10:11:16.056Z,3.67
2018-05-31T10:13:44.373Z,3.58
2018-05-31T10:16:11.876Z,3.65
2018-05-31T10:18:39.434Z,3.30
2018-05-31T10:21:06.940Z,3.78
2018-05-31T10:23:34.472Z,4.07
2018-05-31T10:26:01.989Z,3.47
2018-05-31T10:28:29.541Z,3.72
2018-05-31T10:30:57.072Z,4.07
2018-05-31T10:33:24.646Z,4.00
2018-05-31T10:35:52.553Z,4.10
2018-05-31T10:38:20.080Z,4.60
2018-05-31T10:40:47.621Z,3.75
2018-05-31T10:43:15.132Z,4.15
2018-05-31T10:45:42.694Z,4.40
2018-05-31T10:48:10.206Z,4.20
2018-05-31T10:50:37.757Z,4.30
2018-05-31T10:53:05.278Z,4.25
2018-05-31T10:55:32.831Z,4.62
2018-05-31T10:58:00.505Z,4.60
2018-05-31T11:00:28.277Z,4.25
2018-05-31T11:02:56.654Z,4.87
2018-05-31T11:05:25.081Z,4.85
2018-05-31T11:07:53.515Z,4.97
2018-05-31T11:10:22.369Z,4.50
2018-05-31T11:12:50.061Z,4.40
2018-05-31T11:15:17.767Z,4.37
2018-05-31T11:17:45.483Z,4.10
2018-05-31T11:20:13.249Z,4.47
2018-05-31T11:22:41.009Z,4.53
2018-05-31T11:25:08.717Z,4.50
2018-05-31T11:27:36.489Z,4.53
2018-05-31T11:30:04.218Z,4.47
2018-05-31T11:32:32.784Z,3.80
2018-05-31T11:35:00.425Z,4.18
2018-05-31T11:37:28.131Z,4.43
2018-05-31T11:39:55.793Z,4.60
2018-05-31T11:42:23.468Z,4.55
2018-05-31T11:44:52.401Z,5.07
2018-05-31T11:47:20.068Z,5.07
2018-05-31T11:49:47.729Z,5.22
2018-05-31T11:52:15.486Z,4.93
2018-05-31T11:54:43.112Z,4.78
2018-05-31T11:57:10.874Z,5.10
2018-05-31T11:59:38.523Z,4.28
2018-05-31T12:02:06.909Z,4.47
2018-05-31T12:04:34.639Z,4.50
2018-05-31T12:07:02.312Z,5.00
2018-05-31T12:09:29.975Z,5.00
2018-05-31T12:11:57.538Z,4.70
2018-05-31T12:14:25.149Z,4.78
2018-05-31T12:16:52.815Z,5.15
2018-05-31T12:19:20.426Z,5.57
2018-05-31T12:21:47.976Z,5.10
2018-05-31T12:24:15.582Z,5.30
2018-05-31T12:26:43.147Z,5.57
2018-05-31T12:29:10.698Z,5.00
2018-05-31T12:31:38.267Z,4.57
2018-05-31T12:34:05.914Z,5.20
2018-05-31T12:36:33.491Z,4.75
2018-05-31T12:39:01.151Z,5.05
2018-05-31T12:41:28.730Z,5.30
2018-05-31T12:43:56.258Z,5.30
2018-05-31T12:46:23.905Z,5.60
2018-05-31T12:48:51.533Z,5.50
2018-05-31T12:51:19.120Z,5.68
2018-05-31T12:53:47.543Z,5.15
2018-05-31T12:56:15.117Z,5.30
2018-05-31T12:58:42.626Z,5.20
2018-05-31T13:01:10.210Z,5.50
2018-05-31T13:03:37.748Z,6.07
2018-05-31T13:06:05.397Z,5.82
2018-05-31T13:08:32.910Z,5.97
2018-05-31T13:11:00.508Z,5.97
2018-05-31T13:13:28.061Z,5.97
2018-05-31T13:15:55.669Z,5.90
2018-05-31T13:18:23.250Z,6.15
2018-05-31T13:20:50.841Z,5.90
2018-05-31T13:23:18.398Z,6.65
2018-05-31T13:25:45.985Z,5.32
2018-05-31T13:28:14.370Z,5.93
2018-05-31T13:30:41.958Z,5.60
2018-05-31T13:33:09.606Z,5.28
2018-05-31T13:35:37.202Z,6.22
2018-05-31T13:38:04.835Z,5.30
2018-05-31T13:40:32.452Z,5.55
2018-05-31T13:43:00.106Z,5.72
2018-05-31T13:45:27.692Z,5.37
2018-05-31T13:47:56.070Z,5.53
2018-05-31T13:50:23.622Z,5.47
2018-05-31T13:52:51.208Z,5.15
2018-05-31T13:55:18.788Z,5.53
2018-05-31T13:57:46.380Z,5.60
2018-05-31T14:00:13.902Z,5.00
2018-05-31T14:02:41.526Z,6.28
2018-05-31T14:05:10.313Z,5.97
2018-05-31T14:07:37.874Z,6.05
2018-05-31T14:10:06.208Z,5.80
2018-05-31T14:12:33.747Z,5.60
2018-05-31T14:15:01.385Z,5.80
2018-05-31T14:17:28.928Z,5.70
2018-05-31T14:19:56.505Z,6.40
2018-05-31T14:22:24.090Z,5.87
2018-05-31T14:24:51.719Z,5.90
2018-05-31T14:27:20.029Z,5.62
2018-05-31T14:29:47.686Z,6.30
2018-05-31T14:32:15.248Z,5.90
2018-05-31T14:34:42.916Z,5.85
2018-05-31T14:37:10.444Z,5.97
2018-05-31T14:39:38.036Z,5.80
2018-05-31T14:42:05.636Z,5.97
2018-05-31T14:44:33.194Z,6.00
2018-05-31T14:47:00.790Z,5.87
2018-05-31T14:49:29.756Z,6.62
2018-05-31T14:51:58.136Z,6.47
2018-05-31T14:54:25.718Z,5.90
2018-05-31T14:56:54.093Z,6.35
2018-05-31T14:59:22.116Z,6.15
2018-05-31T15:01:49.748Z,6.22
2018-05-31T15:04:17.332Z,6.57
2018-05-31T15:06:44.969Z,6.40
2018-05-31T15:09:12.908Z,6.72
2018-05-31T15:11:41.298Z,6.35
2018-05-31T15:14:08.860Z,6.40
2018-05-31T15:16:37.235Z,6.85
2018-05-31T15:19:05.598Z,7.20
2018-05-31T15:21:33.234Z,7.10
2018-05-31T15:24:00.817Z,6.80
2018-05-31T15:26:28.393Z,6.68
2018-05-31T15:28:56.773Z,6.90
2018-05-31T15:31:24.285Z,7.00
2018-05-31T15:33:51.954Z,7.07
2018-05-31T15:36:19.474Z,6.35
2018-05-31T15:38:47.112Z,6.80
2018-05-31T15:41:15.431Z,6.97
2018-05-31T15:43:43.021Z,7.15
2018-05-31T15:46:10.573Z,6.47
2018-05-31T15:48:38.162Z,6.93
2018-05-31T15:51:05.710Z,6.82
2018-05-31T15:53:33.319Z,7.43
2018-05-31T15:56:00.880Z,7.50
2018-05-31T15:58:28.522Z,7.32
2018-05-31T16:00:57.969Z,7.62
2018-05-31T16:03:25.950Z,7.22
2018-05-31T16:05:53.523Z,6.90
2018-05-31T16:08:21.149Z,6.70
2018-05-31T16:10:48.718Z,7.25
2018-05-31T16:13:16.295Z,7.53
2018-05-31T16:15:44.954Z,7.45
2018-05-31T16:18:12.506Z,6.40
2018-05-31T16:20:40.112Z,7.70
2018-05-31T16:23:07.645Z,7.47
2018-05-31T16:25:35.227Z,7.97
2018-05-31T16:28:02.844Z,7.53
2018-05-31T16:30:30.860Z,7.07
2018-05-31T16:32:59.222Z,7.67
2018-05-31T16:35:26.827Z,7.97
2018-05-31T16:37:55.181Z,7.30
2018-05-31T16:40:22.772Z,7.00
2018-05-31T16:42:51.115Z,7.23
2018-05-31T16:45:18.713Z,8.60
2018-05-31T16:47:46.293Z,7.57
2018-05-31T16:50:13.933Z,7.87
2018-05-31T16:52:41.456Z,7.80
2018-05-31T16:55:09.456Z,7.67
2018-05-31T16:57:37.034Z,7.70
2018-05-31T17:00:05.804Z,7.70
2018-05-31T17:02:33.372Z,7.63
2018-05-31T17:05:01.676Z,8.00
2018-05-31T17:07:29.244Z,7.30
2018-05-31T17:09:56.822Z,7.60
2018-05-31T17:12:24.435Z,7.17
2018-05-31T17:14:51.981Z,7.37
2018-05-31T17:17:20.305Z,6.90
2018-05-31T17:19:47.904Z,7.97
2018-05-31T17:22:15.490Z,7.40
2018-05-31T17:24:43.780Z,7.63
2018-05-31T17:27:11.354Z,7.17
2018-05-31T17:29:38.924Z,7.43
2018-05-31T17:32:06.482Z,7.47
2018-05-31T17:34:34.087Z,7.33
2018-05-31T17:37:01.644Z,7.43
2018-05-31T17:39:30.014Z,8.10
2018-05-31T17:41:58.627Z,7.37
2018-05-31T17:44:26.968Z,7.80
2018-05-31T17:46:54.511Z,7.67
2018-05-31T17:49:22.165Z,7.90
2018-05-31T17:51:49.648Z,8.67
2018-05-31T17:54:17.968Z,7.67
2018-05-31T17:56:45.575Z,7.73
2018-05-31T17:59:13.092Z,8.17
2018-05-31T18:01:40.612Z,7.63
2018-05-31T18:04:08.207Z,7.70
2018-05-31T18:06:36.562Z,8.10
2018-05-31T18:09:04.212Z,7.30
2018-05-31T18:11:31.799Z,8.37
2018-05-31T18:14:00.143Z,8.23
2018-05-31T18:16:27.730Z,8.23
2018-05-31T18:18:56.092Z,7.90
2018-05-31T18:21:23.690Z,8.57
2018-05-31T18:23:51.300Z,8.03
2018-05-31T18:26:18.928Z,8.37
2018-05-31T18:28:46.503Z,8.37
2018-05-31T18:31:14.072Z,8.20
2018-05-31T18:33:41.624Z,7.93
2018-05-31T18:36:09.180Z,8.20
2018-05-31T18:38:36.706Z,8.00
2018-05-31T18:41:04.267Z,8.00
2018-05-31T18:43:32.582Z,8.83
2018-05-31T18:46:00.215Z,8.53
2018-05-31T18:48:27.794Z,8.03
2018-05-31T18:50:55.350Z,8.53
2018-05-31T18:53:22.884Z,7.93
2018-05-31T18:55:50.462Z,8.30
2018-05-31T18:58:18.041Z,8.57
2018-05-31T19:00:45.612Z,8.80
2018-05-31T19:03:13.192Z,9.37
2018-05-31T19:05:40.766Z,10.27
2018-05-31T19:08:08.284Z,9.53
2018-05-31T19:10:35.880Z,10.17
2018-05-31T19:13:08.974Z,10.07
2018-05-31T19:15:36.594Z,9.67
2018-05-31T19:18:04.930Z,9.30
2018-05-31T19:20:32.522Z,9.80
2018-05-31T19:23:00.109Z,9.07
2018-05-31T19:25:27.706Z,9.07
2018-05-31T19:27:55.298Z,9.80
2018-05-31T19:30:28.614Z,9.90
2018-05-31T19:32:56.200Z,10.70
2018-05-31T19:35:29.446Z,10.00
2018-05-31T19:37:57.031Z,9.80
2018-05-31T19:40:24.728Z,10.57
2018-05-31T19:42:58.140Z,9.97
2018-05-31T19:45:26.455Z,9.57
2018-05-31T19:47:54.009Z,9.87
2018-05-31T19:50:21.588Z,10.00
2018-05-31T19:52:54.860Z,10.50
2018-05-31T19:55:22.400Z,10.07
2018-05-31T19:57:55.644Z,10.27
2018-05-31T20:00:28.920Z,9.97
2018-05-31T20:03:02.056Z,9.50
2018-05-31T20:05:29.588Z,9.67
2018-05-31T20:07:57.192Z,10.30
2018-05-31T20:10:25.548Z,10.73
2018-05-31T20:12:53.094Z,10.43
2018-05-31T20:15:20.624Z,10.43
2018-05-31T20:17:48.220Z,10.93
2018-05-31T20:20:15.772Z,10.23
2018-05-31T20:22:43.340Z,10.53
2018-05-31T20:25:10.869Z,10.30
2018-05-31T20:27:38.480Z,10.23
2018-05-31T20:30:06.798Z,10.97
2018-05-31T20:32:34.384Z,11.40
2018-05-31T20:35:02.681Z,10.87
2018-05-31T20:37:30.194Z,11.23
2018-05-31T20:39:57.744Z,11.70
2018-05-31T20:42:25.264Z,11.60
2018-05-31T20:44:52.841Z,11.70
2018-05-31T20:47:20.386Z,10.93
2018-05-31T20:49:48.748Z,10.93
2018-05-31T20:52:16.299Z,11.17
2018-05-31T20:54:43.902Z,11.70
2018-05-31T20:57:12.180Z,11.90
2018-05-31T20:59:40.217Z,11.27
2018-05-31T21:02:07.738Z,11.23
2018-05-31T21:04:35.338Z,11.77
2018-05-31T21:07:02.890Z,12.07
2018-05-31T21:09:31.722Z,12.23
2018-05-31T21:11:59.288Z,12.03
2018-05-31T21:14:26.835Z,12.00
2018-05-31T21:16:55.188Z,11.97
2018-05-31T21:19:22.712Z,11.27
2018-05-31T21:21:50.290Z,11.63
2018-05-31T21:24:17.816Z,12.30
2018-05-31T21:26:45.406Z,12.13
2018-05-31T21:29:13.001Z,12.13
2018-05-31T21:31:40.554Z,13.03
2018-05-31T21:34:08.112Z,13.53
2018-05-31T21:36:35.718Z,12.60
2018-05-31T21:39:03.262Z,13.47
2018-05-31T21:41:30.828Z,12.63
2018-05-31T21:43:58.351Z,13.00
2018-05-31T21:46:25.910Z,12.43
2018-05-31T21:48:53.412Z,13.17
2018-05-31T21:51:20.972Z,12.27
2018-05-31T21:53:48.494Z,12.80
2018-05-31T21:56:16.103Z,12.20
2018-05-31T21:58:43.697Z,12.17
2018-05-31T22:01:11.213Z,12.77
2018-05-31T22:03:38.791Z,13.13
2018-05-31T22:06:06.455Z,13.03
2018-05-31T22:08:34.023Z,13.03
2018-05-31T22:11:01.562Z,13.37
2018-05-31T22:13:29.139Z,13.40
2018-05-31T22:15:56.668Z,13.83
2018-05-31T22:18:24.228Z,13.67
2018-05-31T22:20:51.748Z,14.50
2018-05-31T22:23:19.321Z,13.70
2018-05-31T22:25:46.869Z,13.00
2018-05-31T22:28:14.439Z,14.40
2018-05-31T22:30:41.986Z,12.90
2018-05-31T22:33:09.554Z,13.10
2018-05-31T22:35:37.101Z,13.83
2018-05-31T22:38:04.646Z,12.27
2018-05-31T22:40:32.208Z,13.80
2018-05-31T22:42:59.739Z,12.77
2018-05-31T22:45:27.290Z,15.03
2018-05-31T22:47:54.916Z,13.53
2018-05-31T22:50:22.486Z,15.43
2018-05-31T22:52:50.763Z,13.80
2018-05-31T22:55:18.372Z,12.73
2018-05-31T22:57:48.109Z,13.57
2018-05-31T23:00:15.742Z,14.40
2018-05-31T23:02:43.281Z,13.87
2018-05-31T23:05:13.497Z,14.77
2018-05-31T23:07:41.027Z,14.63
2018-05-31T23:10:09.423Z,14.23
2018-05-31T23:12:36.945Z,14.83
2018-05-31T23:15:04.471Z,15.07
2018-05-31T23:17:32.044Z,15.07
2018-05-31T23:19:59.595Z,15.60
2018-05-31T23:22:27.163Z,14.33
2018-05-31T23:24:54.681Z,14.87
2018-05-31T23:27:22.248Z,15.13
2018-05-31T23:29:49.790Z,15.50
2018-05-31T23:32:18.123Z,14.83
2018-05-31T23:34:45.690Z,15.90
2018-05-31T23:37:13.227Z,14.97
2018-05-31T23:39:40.791Z,14.80
2018-05-31T23:42:08.405Z,15.13
2018-05-31T23:44:35.918Z,15.17
2018-05-31T23:47:03.507Z,14.33
2018-05-31T23:49:31.082Z,15.13
2018-05-31T23:51:58.917Z,14.93
2018-05-31T23:54:26.452Z,14.77
2018-05-31T23:56:54.040Z,14.60
2018-05-31T23:59:21.612Z,16.00
